createdAt,value
2018-09-06T00:00:26.559Z,0.00
2018-09-06T00:01:26.733Z,0.00
2018-09-06T00:02:26.913Z,0.00
2018-09-06T00:03:27.094Z,0.00
2018-09-06T00:04:27.276Z,0.00
2018-09-06T00:05:27.460Z,0.00
2018-09-06T00:06:27.637Z,0.00
2018-09-06T00:07:27.808Z,0.00
2018-09-06T00:08:27.986Z,0.00
2018-09-06T00:09:28.177Z,0.00
2018-09-06T00:10:28.350Z,0.00
2018-09-06T00:11:28.534Z,0.00
2018-09-06T00:12:28.714Z,0.00
2018-09-06T00:13:28.891Z,0.00
2018-09-06T00:14:29.066Z,0.00
2018-09-06T00:15:29.251Z,0.00
2018-09-06T00:16:29.432Z,0.00
2018-09-06T00:17:29.607Z,0.00
2018-09-06T00:18:29.785Z,0.00
2018-09-06T00:19:29.969Z,0.00
2018-09-06T00:20:30.152Z,0.00
2018-09-06T00:21:30.322Z,0.00
2018-09-06T00:22:30.497Z,0.00
2018-09-06T00:23:30.683Z,0.00
2018-09-06T00:24:30.857Z,0.00
2018-09-06T00:25:31.043Z,0.00
2018-09-06T00:26:31.224Z,0.00
2018-09-06T00:27:31.403Z,0.00
2018-09-06T00:28:31.585Z,0.00
2018-09-06T00:29:31.764Z,0.00
2018-09-06T00:30:31.949Z,0.00
2018-09-06T00:31:32.132Z,0.00
2018-09-06T00:32:32.302Z,0.00
2018-09-06T00:33:32.482Z,0.00
2018-09-06T00:34:32.665Z,0.00
2018-09-06T00:35:32.843Z,0.00
2018-09-06T00:36:33.021Z,0.00
2018-09-06T00:37:33.197Z,0.00
2018-09-06T00:38:33.372Z,0.00
2018-09-06T00:39:33.549Z,0.00
2018-09-06T00:40:33.733Z,0.00
2018-09-06T00:41:33.905Z,0.00
2018-09-06T00:42:34.099Z,0.00
2018-09-06T00:43:34.270Z,0.00
2018-09-06T00:44:34.441Z,0.00
2018-09-06T00:45:34.622Z,0.00
2018-09-06T00:46:34.804Z,0.00
2018-09-06T00:47:34.979Z,0.00
2018-09-06T00:48:35.154Z,0.00
2018-09-06T00:49:35.327Z,0.00
2018-09-06T00:50:35.500Z,0.00
2018-09-06T00:51:35.680Z,0.00
2018-09-06T00:52:35.864Z,0.00
2018-09-06T00:53:36.043Z,0.00
2018-09-06T00:54:36.215Z,0.00
2018-09-06T00:55:36.396Z,0.00
2018-09-06T00:56:36.567Z,0.00
2018-09-06T00:57:36.746Z,0.00
2018-09-06T00:58:36.911Z,0.00
2018-09-06T00:59:37.095Z,0.00
2018-09-06T01:00:37.272Z,0.00
2018-09-06T01:01:37.446Z,0.00
2018-09-06T01:02:37.624Z,0.00
2018-09-06T01:03:37.803Z,0.00
2018-09-06T01:04:37.980Z,0.00
2018-09-06T01:05:38.153Z,0.00
2018-09-06T01:06:38.329Z,0.00
2018-09-06T01:07:38.504Z,0.00
2018-09-06T01:08:38.681Z,0.00
2018-09-06T01:09:38.854Z,0.00
2018-09-06T01:10:39.034Z,0.00
2018-09-06T01:11:39.211Z,0.00
2018-09-06T01:12:39.388Z,0.00
2018-09-06T01:13:39.559Z,0.00
2018-09-06T01:14:39.737Z,0.00
2018-09-06T01:15:39.909Z,0.00
2018-09-06T01:16:40.095Z,0.00
2018-09-06T01:17:40.266Z,0.00
2018-09-06T01:18:40.439Z,0.00
2018-09-06T01:19:40.616Z,0.00
2018-09-06T01:20:40.789Z,0.00
2018-09-06T01:21:40.959Z,0.00
2018-09-06T01:22:41.134Z,0.00
2018-09-06T01:23:41.311Z,0.00
2018-09-06T01:24:41.488Z,0.00
2018-09-06T01:25:41.665Z,0.00
2018-09-06T01:26:41.842Z,0.00
2018-09-06T01:27:42.017Z,0.00
2018-09-06T01:28:42.202Z,0.00
2018-09-06T01:29:42.371Z,0.00
2018-09-06T01:30:42.545Z,0.00
2018-09-06T01:31:42.723Z,0.00
2018-09-06T01:32:42.902Z,0.00
2018-09-06T01:33:43.077Z,0.00
2018-09-06T01:34:43.257Z,0.00
2018-09-06T01:35:43.425Z,0.00
2018-09-06T01:36:43.603Z,0.00
2018-09-06T01:37:43.776Z,0.00
2018-09-06T01:38:43.949Z,0.00
2018-09-06T01:39:44.124Z,0.00
2018-09-06T01:40:44.299Z,0.00
2018-09-06T01:41:44.474Z,0.00
2018-09-06T01:42:44.647Z,0.00
2018-09-06T01:43:44.823Z,0.00
2018-09-06T01:44:44.994Z,0.00
2018-09-06T01:45:45.171Z,0.00
2018-09-06T01:46:45.343Z,0.00
2018-09-06T01:47:45.520Z,0.00
2018-09-06T01:48:45.696Z,0.00
2018-09-06T01:49:45.869Z,0.00
2018-09-06T01:50:46.048Z,0.00
2018-09-06T01:51:46.227Z,0.00
2018-09-06T01:52:46.407Z,0.00
2018-09-06T01:53:46.579Z,0.00
2018-09-06T01:54:46.751Z,0.00
2018-09-06T01:55:46.931Z,0.00
2018-09-06T01:56:47.102Z,0.00
2018-09-06T01:57:47.276Z,0.00
2018-09-06T01:58:47.452Z,0.00
2018-09-06T01:59:47.639Z,0.00
2018-09-06T02:00:47.805Z,0.00
2018-09-06T02:01:47.986Z,0.00
2018-09-06T02:02:48.158Z,0.00
2018-09-06T02:03:48.337Z,0.00
2018-09-06T02:04:48.518Z,0.00
2018-09-06T02:05:48.699Z,0.00
2018-09-06T02:06:48.874Z,0.00
2018-09-06T02:07:49.041Z,0.00
2018-09-06T02:08:49.211Z,0.00
2018-09-06T02:09:49.398Z,0.00
2018-09-06T02:10:49.571Z,0.00
2018-09-06T02:11:49.744Z,0.00
2018-09-06T02:12:49.921Z,0.00
2018-09-06T02:13:50.098Z,0.00
2018-09-06T02:14:50.271Z,0.00
2018-09-06T02:15:50.448Z,0.00
2018-09-06T02:16:50.624Z,0.00
2018-09-06T02:17:50.800Z,0.00
2018-09-06T02:18:50.976Z,0.00
2018-09-06T02:19:51.148Z,0.00
2018-09-06T02:20:51.364Z,0.00
2018-09-06T02:21:51.498Z,0.00
2018-09-06T02:22:51.670Z,0.00
2018-09-06T02:23:51.848Z,0.00
2018-09-06T02:24:52.043Z,0.00
2018-09-06T02:25:52.225Z,0.00
2018-09-06T02:26:52.400Z,0.00
2018-09-06T02:27:52.583Z,0.00
2018-09-06T02:28:52.756Z,0.00
2018-09-06T02:29:52.935Z,0.00
2018-09-06T02:30:53.111Z,0.00
2018-09-06T02:31:53.285Z,0.00
2018-09-06T02:32:53.465Z,0.00
2018-09-06T02:33:53.637Z,0.00
2018-09-06T02:34:53.804Z,0.00
2018-09-06T02:35:53.986Z,0.00
2018-09-06T02:36:54.157Z,0.00
2018-09-06T02:37:54.333Z,0.00
2018-09-06T02:38:54.509Z,0.00
2018-09-06T02:39:54.685Z,0.00
2018-09-06T02:40:54.849Z,0.00
2018-09-06T02:41:55.024Z,0.00
2018-09-06T02:42:55.195Z,0.00
2018-09-06T02:43:55.372Z,0.00
2018-09-06T02:44:55.549Z,0.00
2018-09-06T02:45:55.729Z,0.00
2018-09-06T02:46:55.905Z,0.00
2018-09-06T02:47:56.077Z,0.00
2018-09-06T02:48:56.248Z,0.00
2018-09-06T02:49:56.425Z,0.00
2018-09-06T02:50:56.597Z,0.00
2018-09-06T02:51:56.770Z,0.00
2018-09-06T02:52:56.939Z,0.00
2018-09-06T02:53:57.167Z,0.00
2018-09-06T02:54:57.307Z,0.00
2018-09-06T02:55:57.475Z,0.00
2018-09-06T02:56:57.648Z,0.00
2018-09-06T02:57:57.819Z,0.00
2018-09-06T02:58:57.989Z,0.00
2018-09-06T02:59:58.177Z,0.00
2018-09-06T03:00:58.353Z,0.00
2018-09-06T03:01:58.533Z,0.00
2018-09-06T03:02:58.708Z,0.00
2018-09-06T03:03:58.882Z,0.00
2018-09-06T03:04:59.057Z,0.00
2018-09-06T03:05:59.226Z,0.00
2018-09-06T03:06:59.402Z,0.00
2018-09-06T03:07:59.577Z,0.00
2018-09-06T03:08:59.748Z,0.00
2018-09-06T03:09:59.921Z,0.00
2018-09-06T03:11:00.095Z,0.00
2018-09-06T03:12:00.273Z,0.00
2018-09-06T03:13:00.454Z,0.00
2018-09-06T03:14:00.636Z,0.00
2018-09-06T03:15:00.807Z,0.00
2018-09-06T03:16:00.983Z,0.00
2018-09-06T03:17:01.155Z,0.00
2018-09-06T03:18:01.331Z,0.00
2018-09-06T03:19:01.510Z,0.00
2018-09-06T03:20:01.690Z,0.00
2018-09-06T03:21:01.865Z,0.00
2018-09-06T03:22:02.046Z,0.00
2018-09-06T03:23:02.216Z,0.00
2018-09-06T03:24:02.390Z,0.00
2018-09-06T03:25:02.567Z,0.00
2018-09-06T03:26:02.747Z,0.00
2018-09-06T03:27:02.925Z,0.00
2018-09-06T03:28:03.095Z,0.00
2018-09-06T03:29:03.268Z,0.00
2018-09-06T03:30:03.445Z,0.00
2018-09-06T03:31:03.634Z,0.00
2018-09-06T03:32:03.808Z,0.00
2018-09-06T03:33:03.988Z,0.00
2018-09-06T03:34:04.158Z,0.00
2018-09-06T03:35:04.333Z,0.00
2018-09-06T03:36:04.662Z,0.00
2018-09-06T03:37:04.687Z,0.00
2018-09-06T03:38:04.858Z,0.00
2018-09-06T03:39:05.106Z,0.00
2018-09-06T03:40:05.168Z,0.00
2018-09-06T03:41:05.339Z,0.00
2018-09-06T03:42:05.512Z,0.00
2018-09-06T03:43:05.693Z,0.00
2018-09-06T03:44:05.860Z,0.00
2018-09-06T03:45:06.044Z,0.00
2018-09-06T03:46:06.222Z,0.00
2018-09-06T03:47:06.401Z,0.00
2018-09-06T03:48:07.508Z,0.00
2018-09-06T03:49:07.773Z,0.00
2018-09-06T03:50:07.667Z,0.00
2018-09-06T03:51:10.269Z,0.00
2018-09-06T03:52:09.551Z,0.00
2018-09-06T03:53:11.574Z,0.00
2018-09-06T03:54:09.613Z,0.00
2018-09-06T03:55:07.851Z,0.00
2018-09-06T03:56:08.296Z,0.00
2018-09-06T03:57:08.211Z,0.00
2018-09-06T03:58:08.444Z,0.00
2018-09-06T03:59:08.574Z,0.00
2018-09-06T04:00:08.671Z,0.00
2018-09-06T04:01:08.853Z,0.00
2018-09-06T04:02:09.030Z,0.00
2018-09-06T04:03:09.207Z,0.00
2018-09-06T04:04:09.380Z,0.00
2018-09-06T04:05:09.551Z,0.00
2018-09-06T04:06:09.732Z,0.00
2018-09-06T04:07:09.905Z,0.00
2018-09-06T04:08:10.080Z,0.00
2018-09-06T04:09:10.249Z,0.00
2018-09-06T04:10:10.422Z,0.00
2018-09-06T04:11:10.600Z,0.00
2018-09-06T04:12:10.778Z,0.00
2018-09-06T04:13:13.403Z,0.00
2018-09-06T04:14:11.244Z,4.00
2018-09-06T04:15:11.387Z,4.00
2018-09-06T04:16:11.565Z,0.00
2018-09-06T04:17:11.739Z,4.00
2018-09-06T04:18:11.924Z,4.00
2018-09-06T04:19:12.088Z,4.00
2018-09-06T04:20:12.263Z,8.00
2018-09-06T04:21:12.445Z,4.00
2018-09-06T04:22:12.615Z,4.00
2018-09-06T04:23:12.792Z,8.00
2018-09-06T04:24:13.028Z,12.00
2018-09-06T04:25:13.135Z,12.00
2018-09-06T04:26:13.314Z,16.00
2018-09-06T04:27:13.481Z,12.00
2018-09-06T04:28:13.665Z,16.00
2018-09-06T04:29:13.845Z,20.00
2018-09-06T04:30:14.031Z,20.00
2018-09-06T04:31:14.210Z,24.00
2018-09-06T04:32:14.392Z,32.00
2018-09-06T04:33:14.579Z,36.00
2018-09-06T04:34:14.755Z,36.00
2018-09-06T04:35:14.986Z,40.00
2018-09-06T04:36:15.185Z,52.00
2018-09-06T04:37:15.286Z,56.00
2018-09-06T04:38:15.466Z,60.00
2018-09-06T04:39:15.643Z,64.00
2018-09-06T04:40:15.817Z,76.00
2018-09-06T04:41:15.994Z,84.00
2018-09-06T04:42:16.165Z,88.00
2018-09-06T04:43:16.344Z,96.00
2018-09-06T04:44:16.517Z,108.00
2018-09-06T04:45:16.700Z,112.00
2018-09-06T04:46:16.863Z,128.00
2018-09-06T04:47:17.060Z,132.00
2018-09-06T04:48:17.234Z,148.00
2018-09-06T04:49:17.406Z,156.00
2018-09-06T04:50:17.597Z,168.00
2018-09-06T04:51:17.761Z,180.00
2018-09-06T04:52:17.943Z,192.00
2018-09-06T04:53:18.114Z,208.00
2018-09-06T04:54:18.294Z,224.00
2018-09-06T04:55:18.528Z,240.00
2018-09-06T04:56:18.645Z,252.00
2018-09-06T04:57:18.850Z,268.00
2018-09-06T04:58:19.051Z,288.00
2018-09-06T04:59:19.190Z,308.00
2018-09-06T05:00:19.363Z,328.00
2018-09-06T05:01:19.549Z,348.00
2018-09-06T05:02:19.829Z,368.00
2018-09-06T05:03:19.877Z,392.00
2018-09-06T05:04:20.119Z,416.00
2018-09-06T05:05:20.237Z,436.00
2018-09-06T05:06:20.414Z,456.00
2018-09-06T05:07:20.666Z,484.00
2018-09-06T05:08:20.697Z,508.00
2018-09-06T05:09:20.889Z,528.00
2018-09-06T05:10:21.092Z,556.00
2018-09-06T05:11:21.314Z,584.00
2018-09-06T05:12:22.395Z,612.00
2018-09-06T05:13:23.339Z,640.00
2018-09-06T05:14:23.469Z,672.00
2018-09-06T05:15:22.762Z,708.00
2018-09-06T05:16:24.055Z,740.00
2018-09-06T05:17:23.471Z,768.00
2018-09-06T05:18:25.150Z,800.00
2018-09-06T05:19:24.560Z,828.00
2018-09-06T05:20:23.981Z,864.00
2018-09-06T05:21:25.075Z,892.00
2018-09-06T05:22:25.121Z,924.00
2018-09-06T05:23:23.312Z,956.00
2018-09-06T05:24:23.499Z,988.00
2018-09-06T05:25:23.672Z,1028.00
2018-09-06T05:26:23.849Z,1060.00
2018-09-06T05:27:24.023Z,1088.00
2018-09-06T05:28:24.194Z,1116.00
2018-09-06T05:29:24.373Z,1144.00
2018-09-06T05:30:24.827Z,1176.00
2018-09-06T05:31:24.860Z,1212.00
2018-09-06T05:32:25.123Z,1256.00
2018-09-06T05:33:25.287Z,1296.00
2018-09-06T05:34:25.303Z,1348.00
2018-09-06T05:35:25.355Z,1396.00
2018-09-06T05:36:25.449Z,1436.00
2018-09-06T05:37:25.738Z,1464.00
2018-09-06T05:38:25.955Z,1488.00
2018-09-06T05:39:25.992Z,1508.00
2018-09-06T05:40:26.256Z,1540.00
2018-09-06T05:41:26.467Z,1580.00
2018-09-06T05:42:26.652Z,1632.00
2018-09-06T05:43:26.613Z,1692.00
2018-09-06T05:44:26.824Z,1748.00
2018-09-06T05:45:27.073Z,1812.00
2018-09-06T05:46:27.102Z,1864.00
2018-09-06T05:47:27.346Z,1920.00
2018-09-06T05:48:27.304Z,1980.00
2018-09-06T05:49:27.757Z,2044.00
2018-09-06T05:50:27.913Z,2108.00
2018-09-06T05:51:28.151Z,2176.00
2018-09-06T05:52:28.103Z,2248.00
2018-09-06T05:53:28.352Z,2312.00
2018-09-06T05:54:28.459Z,2384.00
2018-09-06T05:55:28.640Z,2456.00
2018-09-06T05:56:28.819Z,2536.00
2018-09-06T05:57:29.030Z,2640.00
2018-09-06T05:58:29.219Z,2752.00
2018-09-06T05:59:29.396Z,2852.00
2018-09-06T06:00:29.560Z,2952.00
2018-09-06T06:01:29.734Z,3032.00
2018-09-06T06:02:29.906Z,3068.00
2018-09-06T06:03:30.080Z,3084.00
2018-09-06T06:04:30.252Z,3064.00
2018-09-06T06:05:30.436Z,3060.00
2018-09-06T06:06:30.622Z,3084.00
2018-09-06T06:07:31.027Z,3148.00
2018-09-06T06:08:30.958Z,3216.00
2018-09-06T06:09:31.126Z,3284.00
2018-09-06T06:10:31.304Z,3368.00
2018-09-06T06:11:31.487Z,3464.00
2018-09-06T06:12:31.665Z,3580.00
2018-09-06T06:13:31.849Z,3696.00
2018-09-06T06:14:32.034Z,3840.00
2018-09-06T06:15:32.213Z,4056.00
2018-09-06T06:16:32.389Z,4244.00
2018-09-06T06:17:32.586Z,4300.00
2018-09-06T06:18:32.776Z,4304.00
2018-09-06T06:19:32.940Z,4300.00
2018-09-06T06:20:33.129Z,4272.00
2018-09-06T06:21:33.301Z,4240.00
2018-09-06T06:22:33.471Z,4224.00
2018-09-06T06:23:33.661Z,4244.00
2018-09-06T06:24:33.844Z,4260.00
2018-09-06T06:25:34.027Z,4344.00
2018-09-06T06:26:34.230Z,4444.00
2018-09-06T06:27:34.391Z,4556.00
2018-09-06T06:28:34.574Z,4728.00
2018-09-06T06:29:34.756Z,4912.00
2018-09-06T06:30:34.937Z,5132.00
2018-09-06T06:31:35.238Z,5344.00
2018-09-06T06:32:35.313Z,5552.00
2018-09-06T06:33:35.501Z,5744.00
2018-09-06T06:34:35.683Z,5872.00
2018-09-06T06:35:35.854Z,5920.00
2018-09-06T06:36:36.029Z,5968.00
2018-09-06T06:37:36.232Z,6132.00
2018-09-06T06:38:36.407Z,6288.00
2018-09-06T06:39:36.577Z,6324.00
2018-09-06T06:40:36.756Z,6272.00
2018-09-06T06:41:36.935Z,6168.00
2018-09-06T06:42:37.176Z,6024.00
2018-09-06T06:43:37.384Z,5868.00
2018-09-06T06:44:37.566Z,5744.00
2018-09-06T06:45:37.743Z,5584.00
2018-09-06T06:46:37.918Z,5412.00
2018-09-06T06:47:38.123Z,5216.00
2018-09-06T06:48:38.288Z,5116.00
2018-09-06T06:49:38.489Z,5108.00
2018-09-06T06:50:38.904Z,4812.00
2018-09-06T06:51:39.473Z,5064.00
2018-09-06T06:52:39.105Z,5192.00
2018-09-06T06:53:39.360Z,5140.00
2018-09-06T06:54:39.859Z,5068.00
2018-09-06T06:55:39.753Z,4988.00
2018-09-06T06:56:39.709Z,5224.00
2018-09-06T06:57:39.927Z,5052.00
2018-09-06T06:58:40.159Z,5424.00
2018-09-06T06:59:40.305Z,5596.00
2018-09-06T07:00:40.480Z,5972.00
2018-09-06T07:01:40.665Z,5928.00
2018-09-06T07:02:40.842Z,5384.00
2018-09-06T07:03:41.065Z,5964.00
2018-09-06T07:04:41.293Z,5456.00
2018-09-06T07:05:41.400Z,5540.00
2018-09-06T07:06:41.582Z,5596.00
2018-09-06T07:07:41.761Z,5640.00
2018-09-06T07:08:42.052Z,5644.00
2018-09-06T07:09:42.114Z,5944.00
2018-09-06T07:10:42.293Z,6776.00
2018-09-06T07:11:42.526Z,6804.00
2018-09-06T07:12:42.689Z,6788.00
2018-09-06T07:13:42.880Z,6864.00
2018-09-06T07:14:43.115Z,6980.00
2018-09-06T07:15:43.344Z,7096.00
2018-09-06T07:16:43.456Z,7184.00
2018-09-06T07:17:43.890Z,7176.00
2018-09-06T07:18:43.964Z,7224.00
2018-09-06T07:19:44.106Z,7256.00
2018-09-06T07:20:44.281Z,7324.00
2018-09-06T07:21:44.480Z,7416.00
2018-09-06T07:22:44.651Z,7460.00
2018-09-06T07:23:44.836Z,7500.00
2018-09-06T07:24:45.053Z,7536.00
2018-09-06T07:25:45.242Z,7584.00
2018-09-06T07:26:45.999Z,7588.00
2018-09-06T07:27:45.601Z,7624.00
2018-09-06T07:28:45.827Z,7612.00
2018-09-06T07:29:46.254Z,7720.00
2018-09-06T07:30:46.662Z,7928.00
2018-09-06T07:31:46.345Z,8020.00
2018-09-06T07:32:46.450Z,8052.00
2018-09-06T07:33:46.624Z,8052.00
2018-09-06T07:34:46.813Z,8012.00
2018-09-06T07:35:47.005Z,7984.00
2018-09-06T07:36:47.174Z,7988.00
2018-09-06T07:37:47.394Z,7984.00
2018-09-06T07:38:47.571Z,7952.00
2018-09-06T07:39:47.753Z,8244.00
2018-09-06T07:40:47.966Z,8332.00
2018-09-06T07:41:48.121Z,8576.00
2018-09-06T07:42:48.304Z,8640.00
2018-09-06T07:43:48.480Z,8652.00
2018-09-06T07:44:48.662Z,8620.00
2018-09-06T07:45:48.841Z,8520.00
2018-09-06T07:46:49.063Z,8584.00
2018-09-06T07:47:49.201Z,8636.00
2018-09-06T07:48:49.385Z,8732.00
2018-09-06T07:49:49.588Z,8832.00
2018-09-06T07:50:49.771Z,8932.00
2018-09-06T07:51:49.969Z,8980.00
2018-09-06T07:52:50.827Z,8980.00
2018-09-06T07:53:50.264Z,9024.00
2018-09-06T07:54:50.468Z,9064.00
2018-09-06T07:55:50.655Z,9128.00
2018-09-06T07:56:50.853Z,9212.00
2018-09-06T07:57:51.027Z,9292.00
2018-09-06T07:58:51.208Z,9376.00
2018-09-06T07:59:51.413Z,9452.00
2018-09-06T08:00:51.595Z,9524.00
2018-09-06T08:01:51.914Z,9560.00
2018-09-06T08:02:51.949Z,9564.00
2018-09-06T08:03:52.150Z,9544.00
2018-09-06T08:04:52.333Z,9532.00
2018-09-06T08:05:52.532Z,9508.00
2018-09-06T08:06:52.718Z,9520.00
2018-09-06T08:07:54.591Z,9512.00
2018-09-06T08:08:53.095Z,9460.00
2018-09-06T08:09:53.221Z,9428.00
2018-09-06T08:10:53.424Z,9272.00
2018-09-06T08:11:53.652Z,9128.00
2018-09-06T08:12:53.824Z,9116.00
2018-09-06T08:13:54.014Z,9360.00
2018-09-06T08:14:54.192Z,9456.00
2018-09-06T08:15:54.378Z,9532.00
2018-09-06T08:16:54.558Z,9620.00
2018-09-06T08:17:54.742Z,9664.00
2018-09-06T08:18:54.944Z,9720.00
2018-09-06T08:19:55.111Z,9732.00
2018-09-06T08:20:55.297Z,9736.00
2018-09-06T08:21:55.484Z,9672.00
2018-09-06T08:22:55.667Z,9572.00
2018-09-06T08:23:55.850Z,9420.00
2018-09-06T08:24:56.029Z,9364.00
2018-09-06T08:25:56.248Z,9552.00
2018-09-06T08:26:56.417Z,9752.00
2018-09-06T08:27:56.705Z,9848.00
2018-09-06T08:28:56.819Z,9808.00
2018-09-06T08:29:57.020Z,9892.00
2018-09-06T08:30:57.391Z,10096.00
2018-09-06T08:31:57.412Z,10220.00
2018-09-06T08:32:57.619Z,10392.00
2018-09-06T08:33:57.812Z,10592.00
2018-09-06T08:34:58.079Z,10848.00
2018-09-06T08:35:58.137Z,11040.00
2018-09-06T08:36:58.341Z,11208.00
2018-09-06T08:37:58.822Z,11436.00
2018-09-06T08:38:58.662Z,11040.00
2018-09-06T08:39:58.837Z,11204.00
2018-09-06T08:40:59.016Z,11932.00
2018-09-06T08:41:59.489Z,11652.00
2018-09-06T08:42:59.432Z,11564.00
2018-09-06T08:43:59.614Z,13004.00
2018-09-06T08:44:59.820Z,15984.00
2018-09-06T08:46:00.027Z,18688.00
2018-09-06T08:47:00.971Z,24064.00
2018-09-06T08:48:00.503Z,30016.00
2018-09-06T08:49:00.571Z,26272.00
2018-09-06T08:50:00.753Z,28352.00
2018-09-06T08:51:00.941Z,31104.00
2018-09-06T08:52:01.158Z,24480.00
2018-09-06T08:53:01.335Z,23648.00
2018-09-06T08:54:01.501Z,25856.00
2018-09-06T08:55:01.687Z,20512.00
2018-09-06T08:56:01.871Z,22656.00
2018-09-06T08:57:02.081Z,26272.00
2018-09-06T08:58:02.285Z,18336.00
2018-09-06T08:59:02.532Z,15332.00
2018-09-06T09:00:02.683Z,15512.00
2018-09-06T09:01:02.878Z,15152.00
2018-09-06T09:02:03.072Z,12888.00
2018-09-06T09:03:03.286Z,11452.00
2018-09-06T09:04:03.431Z,12580.00
2018-09-06T09:05:03.606Z,12212.00
2018-09-06T09:06:03.859Z,17664.00
2018-09-06T09:07:05.442Z,15848.00
2018-09-06T09:08:05.434Z,15608.00
2018-09-06T09:09:04.369Z,14200.00
2018-09-06T09:10:04.548Z,14136.00
2018-09-06T09:11:04.732Z,14532.00
2018-09-06T09:12:04.924Z,17824.00
2018-09-06T09:13:05.123Z,24256.00
2018-09-06T09:14:05.298Z,28096.00
2018-09-06T09:15:05.489Z,30784.00
2018-09-06T09:16:05.712Z,33824.00
2018-09-06T09:17:05.899Z,36576.00
2018-09-06T09:18:06.053Z,35680.00
2018-09-06T09:19:06.249Z,33152.00
2018-09-06T09:20:06.443Z,28160.00
2018-09-06T09:21:06.622Z,28672.00
2018-09-06T09:22:06.856Z,25600.00
2018-09-06T09:23:07.012Z,29408.00
2018-09-06T09:24:07.288Z,29248.00
2018-09-06T09:25:07.434Z,25056.00
2018-09-06T09:26:07.639Z,17824.00
2018-09-06T09:27:07.815Z,27392.00
2018-09-06T09:28:08.008Z,28896.00
2018-09-06T09:29:08.215Z,27200.00
2018-09-06T09:30:08.408Z,29536.00
2018-09-06T09:31:08.602Z,27680.00
2018-09-06T09:32:08.787Z,31296.00
2018-09-06T09:33:09.005Z,34528.00
2018-09-06T09:34:09.173Z,38688.00
2018-09-06T09:35:09.412Z,41792.00
2018-09-06T09:36:09.552Z,50112.00
2018-09-06T09:37:10.534Z,47968.00
2018-09-06T09:38:09.937Z,48352.00
2018-09-06T09:39:10.118Z,49600.00
2018-09-06T09:40:10.303Z,48480.00
2018-09-06T09:41:10.489Z,51584.00
2018-09-06T09:42:10.686Z,48928.00
2018-09-06T09:43:10.915Z,46592.00
2018-09-06T09:44:11.108Z,45760.00
2018-09-06T09:45:11.299Z,42464.00
2018-09-06T09:47:43.632Z,45280.00
2018-09-06T09:48:43.814Z,44544.00
2018-09-06T09:49:44.000Z,45088.00
2018-09-06T09:51:05.184Z,39456.00
2018-09-06T09:51:44.351Z,35840.00
2018-09-06T09:52:44.539Z,35936.00
2018-09-06T09:53:44.736Z,36320.00
2018-09-06T09:54:44.926Z,37440.00
2018-09-06T09:55:45.113Z,36032.00
2018-09-06T09:56:45.302Z,35136.00
2018-09-06T09:57:45.597Z,28288.00
2018-09-06T09:58:45.859Z,25408.00
2018-09-06T09:59:46.538Z,23552.00
2018-09-06T10:00:46.124Z,22592.00
2018-09-06T10:01:46.307Z,25056.00
2018-09-06T10:02:46.497Z,29728.00
2018-09-06T10:03:46.742Z,35424.00
2018-09-06T10:04:46.882Z,40928.00
2018-09-06T10:05:47.357Z,41504.00
2018-09-06T10:06:47.294Z,36704.00
2018-09-06T10:07:47.647Z,37536.00
2018-09-06T10:08:47.680Z,37728.00
2018-09-06T10:09:47.881Z,39776.00
2018-09-06T10:10:48.076Z,37632.00
2018-09-06T10:11:48.270Z,35296.00
2018-09-06T10:12:48.500Z,35424.00
2018-09-06T10:13:48.734Z,29984.00
2018-09-06T10:14:48.904Z,27392.00
2018-09-06T10:15:49.094Z,24224.00
2018-09-06T10:16:49.292Z,17504.00
2018-09-06T10:17:49.479Z,17568.00
2018-09-06T10:18:49.663Z,16320.00
2018-09-06T10:19:49.853Z,14704.00
2018-09-06T10:20:50.096Z,12480.00
2018-09-06T10:21:50.227Z,12340.00
2018-09-06T10:22:50.444Z,11156.00
2018-09-06T10:23:50.640Z,12312.00
2018-09-06T10:24:50.830Z,12204.00
2018-09-06T10:25:51.051Z,13668.00
2018-09-06T10:26:51.236Z,12388.00
2018-09-06T10:27:51.425Z,11452.00
2018-09-06T10:28:51.628Z,11704.00
2018-09-06T10:29:51.807Z,13348.00
2018-09-06T10:30:51.994Z,13768.00
2018-09-06T10:31:52.184Z,13352.00
2018-09-06T10:32:52.372Z,13244.00
2018-09-06T10:33:52.560Z,12652.00
2018-09-06T10:34:52.754Z,11568.00
2018-09-06T10:35:52.948Z,11140.00
2018-09-06T10:36:53.250Z,9744.00
2018-09-06T10:37:53.372Z,9452.00
2018-09-06T10:38:53.556Z,11404.00
2018-09-06T10:39:53.754Z,11608.00
2018-09-06T10:40:53.935Z,10876.00
2018-09-06T10:41:54.124Z,9984.00
2018-09-06T10:42:54.309Z,10200.00
2018-09-06T10:43:54.530Z,11096.00
2018-09-06T10:44:54.727Z,11948.00
2018-09-06T10:45:54.922Z,12632.00
2018-09-06T10:46:55.097Z,12856.00
2018-09-06T10:47:55.331Z,13000.00
2018-09-06T10:48:55.473Z,12444.00
2018-09-06T10:49:55.656Z,12684.00
2018-09-06T10:50:55.843Z,12640.00
2018-09-06T10:51:56.042Z,12260.00
2018-09-06T10:52:56.234Z,12464.00
2018-09-06T10:53:56.419Z,12032.00
2018-09-06T10:54:56.608Z,11248.00
2018-09-06T10:55:56.801Z,10976.00
2018-09-06T10:56:56.988Z,10468.00
2018-09-06T10:57:57.171Z,9944.00
2018-09-06T10:58:57.357Z,9472.00
2018-09-06T10:59:57.535Z,8896.00
2018-09-06T11:00:57.723Z,8648.00
2018-09-06T11:01:57.911Z,9112.00
2018-09-06T11:02:58.097Z,9592.00
2018-09-06T11:03:58.284Z,9884.00
2018-09-06T11:04:58.482Z,10184.00
2018-09-06T11:05:58.674Z,9936.00
2018-09-06T11:06:58.865Z,9408.00
2018-09-06T11:07:59.096Z,9896.00
2018-09-06T11:08:59.245Z,9860.00
2018-09-06T11:10:00.993Z,9944.00
2018-09-06T11:10:59.881Z,10092.00
2018-09-06T11:11:59.751Z,10428.00
2018-09-06T11:13:00.049Z,10156.00
2018-09-06T11:14:00.141Z,10388.00
2018-09-06T11:15:00.992Z,10504.00
2018-09-06T11:16:00.630Z,10136.00
2018-09-06T11:17:01.455Z,9956.00
2018-09-06T11:18:01.532Z,10112.00
2018-09-06T11:19:01.032Z,10420.00
2018-09-06T11:20:03.055Z,10168.00
2018-09-06T11:21:02.367Z,10208.00
2018-09-06T11:22:01.859Z,10480.00
2018-09-06T11:23:01.781Z,9792.00
2018-09-06T11:24:02.458Z,8788.00
2018-09-06T11:25:02.121Z,8008.00
2018-09-06T11:26:02.350Z,7760.00
2018-09-06T11:27:03.316Z,7696.00
2018-09-06T11:28:02.673Z,7832.00
2018-09-06T11:29:02.856Z,7864.00
2018-09-06T11:30:08.573Z,7696.00
2018-09-06T11:31:03.382Z,6664.00
2018-09-06T11:32:03.496Z,6584.00
2018-09-06T11:33:03.693Z,7292.00
2018-09-06T11:34:04.571Z,7316.00
2018-09-06T11:35:06.335Z,6616.00
2018-09-06T11:36:04.676Z,6048.00
2018-09-06T11:37:05.880Z,5004.00
2018-09-06T11:38:06.115Z,4232.00
2018-09-06T11:39:05.475Z,3764.00
2018-09-06T11:40:06.060Z,3620.00
2018-09-06T11:41:06.500Z,3364.00
2018-09-06T11:42:06.012Z,3156.00
2018-09-06T11:43:06.337Z,2988.00
2018-09-06T11:44:05.762Z,2860.00
2018-09-06T11:45:06.558Z,2820.00
2018-09-06T11:46:07.127Z,2644.00
2018-09-06T11:47:06.150Z,2460.00
2018-09-06T11:48:06.261Z,2260.00
2018-09-06T11:49:06.456Z,2100.00
2018-09-06T11:50:06.634Z,1996.00
2018-09-06T11:51:06.823Z,1940.00
2018-09-06T11:52:07.141Z,1880.00
2018-09-06T11:53:07.392Z,1824.00
2018-09-06T11:54:07.714Z,1840.00
2018-09-06T11:55:07.591Z,1832.00
2018-09-06T11:56:08.316Z,1724.00
2018-09-06T11:57:08.170Z,1544.00
2018-09-06T11:58:08.254Z,1392.00
2018-09-06T11:59:08.259Z,1292.00
2018-09-06T12:00:08.443Z,1208.00
2018-09-06T12:01:08.648Z,1152.00
2018-09-06T12:02:08.852Z,1132.00
2018-09-06T12:03:09.025Z,1116.00
2018-09-06T12:04:09.207Z,1092.00
2018-09-06T12:05:09.403Z,1072.00
2018-09-06T12:06:09.625Z,1088.00
2018-09-06T12:07:09.789Z,1124.00
2018-09-06T12:08:10.008Z,1176.00
2018-09-06T12:09:10.192Z,1252.00
2018-09-06T12:10:10.397Z,1356.00
2018-09-06T12:11:10.622Z,1472.00
2018-09-06T12:12:10.828Z,1516.00
2018-09-06T12:13:11.091Z,1476.00
2018-09-06T12:14:11.243Z,1360.00
2018-09-06T12:15:11.760Z,1144.00
2018-09-06T12:16:13.685Z,988.00
2018-09-06T12:17:11.682Z,916.00
2018-09-06T12:18:12.827Z,892.00
2018-09-06T12:19:13.491Z,872.00
2018-09-06T12:20:13.739Z,856.00
2018-09-06T12:21:15.446Z,844.00
2018-09-06T12:22:12.667Z,848.00
2018-09-06T12:23:15.340Z,856.00
2018-09-06T12:24:15.897Z,860.00
2018-09-06T12:25:14.058Z,832.00
2018-09-06T12:26:16.349Z,812.00
2018-09-06T12:27:15.202Z,792.00
2018-09-06T12:28:15.105Z,772.00
2018-09-06T12:29:14.302Z,740.00
2018-09-06T12:30:15.025Z,700.00
2018-09-06T12:31:16.420Z,672.00
2018-09-06T12:32:15.409Z,652.00